createdAt,value
2023-12-16T00:00:41.821Z,100447.75
2023-12-16T00:03:08.650Z,100424.84
2023-12-16T00:05:35.316Z,100504.91
2023-12-16T00:08:02.056Z,100399.28
2023-12-16T00:10:28.744Z,100459.66
2023-12-16T00:12:55.942Z,100418.28
2023-12-16T00:15:22.782Z,100461.72
2023-12-16T00:17:49.503Z,100440.53
2023-12-16T00:20:16.196Z,100397.34
2023-12-16T00:22:43.188Z,100469.00
2023-12-16T00:25:10.492Z,100508.84
2023-12-16T00:27:37.419Z,100436.63
2023-12-16T00:30:06.548Z,100433.41
2023-12-16T00:32:33.351Z,100458.69
2023-12-16T00:34:59.939Z,100426.97
2023-12-16T00:37:26.660Z,100473.81
2023-12-16T00:39:53.301Z,100416.25
2023-12-16T00:42:20.119Z,100394.75
2023-12-16T00:44:46.811Z,100453.34
2023-12-16T00:47:13.386Z,100459.56
2023-12-16T00:49:39.975Z,100491.59
2023-12-16T00:52:06.628Z,100460.97
2023-12-16T00:54:33.189Z,100450.72
2023-12-16T00:56:59.870Z,100469.78
2023-12-16T00:59:27.430Z,100411.41
2023-12-16T01:01:54.630Z,100499.94
2023-12-16T01:04:21.340Z,100407.72
2023-12-16T01:06:48.088Z,100438.47
2023-12-16T01:09:14.692Z,100430.06
2023-12-16T01:11:42.490Z,100443.50
2023-12-16T01:14:09.797Z,100413.88
2023-12-16T01:16:36.504Z,100438.06
2023-12-16T01:19:03.334Z,100441.88
2023-12-16T01:21:30.011Z,100402.28
2023-12-16T01:23:56.631Z,100481.84
2023-12-16T01:26:23.189Z,100454.97
2023-12-16T01:28:49.787Z,100418.47
2023-12-16T01:31:16.629Z,100483.41
2023-12-16T01:33:43.291Z,100455.72
2023-12-16T01:36:09.930Z,100496.34
2023-12-16T01:38:36.485Z,100429.16
2023-12-16T01:41:03.175Z,100477.25
2023-12-16T01:43:29.823Z,100476.56
2023-12-16T01:46:03.010Z,100469.38
2023-12-16T01:48:31.530Z,100482.16
2023-12-16T01:50:58.625Z,100503.75
2023-12-16T01:53:28.170Z,100501.72
2023-12-16T01:55:55.414Z,100509.81
2023-12-16T01:58:23.777Z,100517.22
2023-12-16T02:00:53.799Z,100551.63
2023-12-16T02:03:21.566Z,100547.69
2023-12-16T02:05:48.300Z,100458.84
2023-12-16T02:08:15.255Z,100519.53
2023-12-16T02:10:41.855Z,100505.19
2023-12-16T02:13:08.548Z,100506.03
2023-12-16T02:15:35.119Z,100459.19
2023-12-16T02:18:01.738Z,100480.16
2023-12-16T02:20:28.692Z,100555.59
2023-12-16T02:22:55.291Z,100522.88
2023-12-16T02:25:21.926Z,100514.38
2023-12-16T02:27:48.855Z,100503.84
2023-12-16T02:30:15.750Z,100496.41
2023-12-16T02:32:42.746Z,100496.34
2023-12-16T02:35:09.465Z,100566.91
2023-12-16T02:37:36.116Z,100576.06
2023-12-16T02:40:03.028Z,100535.56
2023-12-16T02:42:29.759Z,100512.06
2023-12-16T02:44:56.488Z,100554.81
2023-12-16T02:47:23.082Z,100573.09
2023-12-16T02:49:49.746Z,100530.19
2023-12-16T02:52:16.264Z,100539.66
2023-12-16T02:54:42.878Z,100605.53
2023-12-16T02:57:09.416Z,100514.03
2023-12-16T02:59:36.063Z,100624.78
2023-12-16T03:02:02.793Z,100603.38
2023-12-16T03:04:29.427Z,100560.47
2023-12-16T03:06:56.260Z,100595.97
2023-12-16T03:09:22.953Z,100593.72
2023-12-16T03:11:51.025Z,100593.72
2023-12-16T03:14:17.999Z,100537.38
2023-12-16T03:16:44.982Z,100614.78
2023-12-16T03:19:11.705Z,100587.81
2023-12-16T03:21:38.681Z,100599.72
2023-12-16T03:24:05.714Z,100574.91
2023-12-16T03:26:32.259Z,100653.22
2023-12-16T03:28:58.869Z,100564.69
2023-12-16T03:31:25.629Z,100631.72
2023-12-16T03:33:54.404Z,100599.91
2023-12-16T03:36:21.307Z,100586.13
2023-12-16T03:38:47.884Z,100632.31
2023-12-16T03:41:14.566Z,100673.69
2023-12-16T03:43:41.220Z,100613.38
2023-12-16T03:46:09.228Z,100619.22
2023-12-16T03:48:37.003Z,100650.06
2023-12-16T03:51:03.900Z,100646.53
2023-12-16T03:53:30.912Z,100634.53
2023-12-16T03:55:57.433Z,100660.31
2023-12-16T03:58:24.178Z,100590.50
2023-12-16T04:00:51.212Z,100592.06
2023-12-16T04:03:17.963Z,100640.66
2023-12-16T04:05:44.723Z,100584.56
2023-12-16T04:08:11.463Z,100619.75
2023-12-16T04:10:38.042Z,100663.19
2023-12-16T04:13:04.757Z,100671.25
2023-12-16T04:15:31.336Z,100643.94
2023-12-16T04:17:57.966Z,100621.16
2023-12-16T04:20:24.555Z,100659.41
2023-12-16T04:22:51.293Z,100557.09
2023-12-16T04:25:17.881Z,100609.25
2023-12-16T04:27:44.448Z,100604.34
2023-12-16T04:30:12.107Z,100603.72
2023-12-16T04:32:38.841Z,100616.50
2023-12-16T04:35:06.143Z,100611.47
2023-12-16T04:37:32.697Z,100619.94
2023-12-16T04:39:59.362Z,100620.91
2023-12-16T04:42:25.917Z,100630.69
2023-12-16T04:44:52.451Z,100643.88
2023-12-16T04:47:19.037Z,100699.91
2023-12-16T04:49:45.663Z,100615.72
2023-12-16T04:52:12.282Z,100691.16
2023-12-16T04:54:38.942Z,100630.50
2023-12-16T04:57:05.897Z,100645.38
2023-12-16T04:59:32.560Z,100646.41
2023-12-16T05:01:59.808Z,100628.19
2023-12-16T05:04:26.659Z,100622.19
2023-12-16T05:06:55.434Z,100645.53
2023-12-16T05:09:22.217Z,100660.94
2023-12-16T05:11:48.829Z,100674.84
2023-12-16T05:14:15.551Z,100641.75
2023-12-16T05:16:42.095Z,100663.38
2023-12-16T05:19:08.933Z,100631.59
2023-12-16T05:21:35.701Z,100687.31
2023-12-16T05:24:02.481Z,100705.72
2023-12-16T05:26:29.151Z,100636.59
2023-12-16T05:28:55.784Z,100641.66
2023-12-16T05:31:22.329Z,100685.34
2023-12-16T05:33:50.170Z,100740.31
2023-12-16T05:36:17.183Z,100753.28
2023-12-16T05:38:43.838Z,100725.94
2023-12-16T05:41:13.874Z,100683.56
2023-12-16T05:43:40.474Z,100750.44
2023-12-16T05:46:07.134Z,100664.50
2023-12-16T05:48:36.504Z,100740.91
2023-12-16T05:51:04.978Z,100692.44
2023-12-16T05:53:32.748Z,100758.09
2023-12-16T05:55:59.277Z,100717.16
2023-12-16T05:58:25.897Z,100711.34
2023-12-16T06:00:52.626Z,100721.56
2023-12-16T06:03:19.322Z,100682.06
2023-12-16T06:05:46.195Z,100705.34
2023-12-16T06:08:12.722Z,100685.03
2023-12-16T06:10:39.336Z,100752.94
2023-12-16T06:13:05.983Z,100715.38
2023-12-16T06:15:32.487Z,100723.13
2023-12-16T06:18:03.984Z,100760.66
2023-12-16T06:20:31.569Z,100720.53
2023-12-16T06:22:58.096Z,100723.44
2023-12-16T06:25:24.796Z,100764.63
2023-12-16T06:27:51.493Z,100797.78
2023-12-16T06:30:18.195Z,100795.31
2023-12-16T06:32:44.774Z,100716.06
2023-12-16T06:35:11.386Z,100757.13
2023-12-16T06:37:38.712Z,100709.50
2023-12-16T06:40:06.374Z,100784.59
2023-12-16T06:42:32.996Z,100737.47
2023-12-16T06:44:59.646Z,100789.97
2023-12-16T06:47:26.450Z,100796.81
2023-12-16T06:49:54.387Z,100772.81
2023-12-16T06:52:21.167Z,100810.03
2023-12-16T06:54:47.766Z,100726.91
2023-12-16T06:57:14.400Z,100815.22
2023-12-16T06:59:40.915Z,100811.41
2023-12-16T07:02:07.534Z,100808.59
2023-12-16T07:04:34.208Z,100757.06
2023-12-16T07:07:00.882Z,100788.19
2023-12-16T07:09:27.522Z,100837.94
2023-12-16T07:11:54.131Z,100754.75
2023-12-16T07:14:20.754Z,100797.63
2023-12-16T07:16:47.327Z,100820.06
2023-12-16T07:19:15.367Z,100805.19
2023-12-16T07:21:42.962Z,100842.75
2023-12-16T07:24:09.697Z,100753.34
2023-12-16T07:26:36.257Z,100811.78
2023-12-16T07:29:03.481Z,100820.66
2023-12-16T07:31:30.396Z,100812.38
2023-12-16T07:33:57.921Z,100743.25
2023-12-16T07:36:24.610Z,100816.09
2023-12-16T07:38:51.189Z,100828.91
2023-12-16T07:41:17.739Z,100808.63
2023-12-16T07:43:44.331Z,100859.97
2023-12-16T07:46:10.957Z,100845.09
2023-12-16T07:48:37.703Z,100858.59
2023-12-16T07:51:04.439Z,100843.00
2023-12-16T07:53:31.050Z,100829.09
2023-12-16T07:55:58.087Z,100824.41
2023-12-16T07:58:24.717Z,100803.75
2023-12-16T08:00:51.747Z,100791.34
2023-12-16T08:03:18.522Z,100791.19
2023-12-16T08:05:45.256Z,100868.66
2023-12-16T08:08:11.832Z,100803.09
2023-12-16T08:10:38.613Z,100850.38
2023-12-16T08:13:06.542Z,100870.97
2023-12-16T08:15:33.312Z,100828.38
2023-12-16T08:17:59.879Z,100866.09
2023-12-16T08:20:26.493Z,100864.91
2023-12-16T08:22:53.114Z,100889.19
2023-12-16T08:25:19.732Z,100874.00
2023-12-16T08:27:46.299Z,100856.16
2023-12-16T08:30:14.509Z,100894.41
2023-12-16T08:32:41.273Z,100874.31
2023-12-16T08:35:08.597Z,100871.22
2023-12-16T08:37:35.346Z,100841.56
2023-12-16T08:40:02.187Z,100901.00
2023-12-16T08:42:28.932Z,100903.41
2023-12-16T08:44:55.527Z,100839.41
2023-12-16T08:47:22.083Z,100885.41
2023-12-16T08:49:48.828Z,100864.47
2023-12-16T08:52:15.840Z,100897.06
2023-12-16T08:54:42.587Z,100909.72
2023-12-16T08:57:09.408Z,100876.50
2023-12-16T08:59:36.471Z,100916.34
2023-12-16T09:02:04.145Z,100922.69
2023-12-16T09:04:30.839Z,100889.69
2023-12-16T09:06:58.157Z,100888.09
2023-12-16T09:09:24.852Z,100928.94
2023-12-16T09:11:51.469Z,100912.41
2023-12-16T09:14:18.037Z,100955.56
2023-12-16T09:16:44.593Z,100966.44
2023-12-16T09:19:13.191Z,100906.13
2023-12-16T09:21:39.916Z,100921.97
2023-12-16T09:24:06.925Z,100957.75
2023-12-16T09:26:33.717Z,100933.44
2023-12-16T09:29:02.223Z,100948.06
2023-12-16T09:31:29.306Z,100952.69
2023-12-16T09:33:56.136Z,100956.16
2023-12-16T09:36:28.222Z,100965.41
2023-12-16T09:39:01.316Z,100991.25
2023-12-16T09:41:31.438Z,100983.22
2023-12-16T09:44:00.271Z,100984.91
2023-12-16T09:46:31.400Z,100952.31
2023-12-16T09:49:00.199Z,100953.75
2023-12-16T09:51:27.466Z,100951.50
2023-12-16T09:53:55.233Z,100929.22
2023-12-16T09:56:22.249Z,100986.91
2023-12-16T09:58:52.764Z,100984.75
2023-12-16T10:01:19.912Z,100889.72
2023-12-16T10:03:48.642Z,100979.00
2023-12-16T10:06:18.708Z,100928.50
2023-12-16T10:08:45.984Z,100920.44
2023-12-16T10:11:14.560Z,100963.84
2023-12-16T10:13:59.718Z,100916.78
2023-12-16T10:16:26.830Z,100931.75
2023-12-16T10:18:55.646Z,100924.50
2023-12-16T10:21:32.340Z,100919.84
2023-12-16T10:24:01.375Z,100961.44
2023-12-16T10:26:35.229Z,100994.63
2023-12-16T10:29:06.084Z,100946.47
2023-12-16T10:31:34.870Z,100970.28
2023-12-16T10:34:02.967Z,100969.16
2023-12-16T10:36:31.030Z,100918.56
2023-12-16T10:38:58.403Z,100967.75
2023-12-16T10:41:25.238Z,100909.41
2023-12-16T10:43:54.324Z,100972.91
2023-12-16T10:46:22.968Z,100945.81
2023-12-16T10:48:52.330Z,100929.56
2023-12-16T10:51:20.133Z,100933.50
2023-12-16T10:53:58.007Z,100975.34
2023-12-16T10:56:30.657Z,100928.50
2023-12-16T10:59:00.406Z,100966.06
2023-12-16T11:01:32.595Z,100893.09
2023-12-16T11:04:08.530Z,100961.69
2023-12-16T11:06:44.048Z,100888.94
2023-12-16T11:09:12.758Z,100927.13
2023-12-16T11:11:42.263Z,100963.59
2023-12-16T11:14:10.130Z,100932.09
2023-12-16T11:16:55.567Z,100955.06
2023-12-16T11:19:26.720Z,100943.00
2023-12-16T11:21:53.492Z,100863.34
2023-12-16T11:24:20.348Z,100946.31
2023-12-16T11:26:56.712Z,100961.50
2023-12-16T11:29:24.656Z,100947.41
2023-12-16T11:31:54.901Z,100949.06
2023-12-16T11:34:40.208Z,100944.72
2023-12-16T11:37:07.022Z,100893.63
2023-12-16T11:39:38.256Z,100940.16
2023-12-16T11:42:06.246Z,100947.25
2023-12-16T11:44:52.897Z,100933.03
2023-12-16T11:47:21.583Z,100918.94
2023-12-16T11:49:49.548Z,100912.56
2023-12-16T11:52:18.307Z,100924.59
2023-12-16T11:54:45.062Z,100843.94
2023-12-16T11:57:11.849Z,100847.72
2023-12-16T11:59:38.700Z,100915.47
2023-12-16T12:02:06.786Z,100793.22
2023-12-16T12:04:33.799Z,100883.09
2023-12-16T12:07:00.566Z,100871.94
2023-12-16T12:09:27.539Z,100833.13
2023-12-16T12:11:54.244Z,100861.03
2023-12-16T12:14:20.767Z,100851.22
2023-12-16T12:16:47.343Z,100854.91
2023-12-16T12:19:14.203Z,100849.50
2023-12-16T12:21:42.029Z,100856.91
2023-12-16T12:24:08.856Z,100824.09
2023-12-16T12:26:36.145Z,100874.75
2023-12-16T12:29:06.339Z,100824.22
2023-12-16T12:31:43.310Z,100876.28
2023-12-16T12:34:19.306Z,100829.69
2023-12-16T12:36:47.035Z,100841.06
2023-12-16T12:39:18.448Z,100821.84
2023-12-16T12:41:45.194Z,100822.06
2023-12-16T12:44:13.033Z,100813.59
2023-12-16T12:46:47.469Z,100860.72
2023-12-16T12:49:14.510Z,100834.91
2023-12-16T12:51:51.624Z,100830.47
2023-12-16T12:54:19.856Z,100815.97
2023-12-16T12:56:46.546Z,100871.75
2023-12-16T12:59:57.576Z,100819.19
2023-12-16T13:01:59.761Z,100816.09
2023-12-16T13:04:26.284Z,100869.91
2023-12-16T13:06:52.931Z,100854.59
2023-12-16T13:09:19.721Z,100806.03
2023-12-16T13:11:46.273Z,100851.31
2023-12-16T13:14:17.704Z,100819.63
2023-12-16T13:16:46.748Z,100853.97
2023-12-16T13:19:13.451Z,100839.59
2023-12-16T13:21:41.772Z,100867.13
2023-12-16T13:24:08.553Z,100833.00
2023-12-16T13:26:35.213Z,100835.44
2023-12-16T13:29:02.024Z,100845.81
2023-12-16T13:31:28.603Z,100845.81
2023-12-16T13:33:55.864Z,100833.41
2023-12-16T13:36:34.155Z,100835.72
2023-12-16T13:39:10.265Z,100818.34
2023-12-16T13:41:36.923Z,100862.88
2023-12-16T13:44:03.716Z,100797.88
2023-12-16T13:46:31.091Z,100812.47
2023-12-16T13:48:58.365Z,100860.81
2023-12-16T13:51:26.817Z,100837.31
2023-12-16T13:53:53.531Z,100857.66
2023-12-16T13:56:20.091Z,100845.22
2023-12-16T13:58:46.623Z,100827.34
2023-12-16T14:01:13.223Z,100848.13
2023-12-16T14:03:40.184Z,100814.28
2023-12-16T14:06:07.567Z,100821.06
2023-12-16T14:08:34.304Z,100864.03
2023-12-16T14:11:00.888Z,100812.75
2023-12-16T14:13:27.611Z,100780.59
2023-12-16T14:15:54.204Z,100804.94
2023-12-16T14:18:20.875Z,100827.06
2023-12-16T14:20:47.570Z,100794.53
2023-12-16T14:23:14.438Z,100832.81
2023-12-16T14:25:41.211Z,100831.88
2023-12-16T14:28:07.843Z,100865.75
2023-12-16T14:30:34.535Z,100791.03
2023-12-16T14:33:01.420Z,100806.19
2023-12-16T14:35:28.170Z,100794.50
2023-12-16T14:37:54.959Z,100813.53
2023-12-16T14:40:21.614Z,100850.25
2023-12-16T14:42:48.151Z,100765.00
2023-12-16T14:45:15.174Z,100821.84
2023-12-16T14:47:41.953Z,100835.94
2023-12-16T14:50:09.236Z,100843.84
2023-12-16T14:52:35.970Z,100823.78
2023-12-16T14:55:04.785Z,100778.91
2023-12-16T14:57:33.919Z,100843.44
2023-12-16T15:00:00.586Z,100838.44
2023-12-16T15:02:27.132Z,100807.19
2023-12-16T15:04:53.783Z,100845.59
2023-12-16T15:07:23.528Z,100837.16
2023-12-16T15:09:50.251Z,100799.84
2023-12-16T15:12:18.229Z,100795.78
2023-12-16T15:14:44.882Z,100830.66
2023-12-16T15:17:12.067Z,100846.78
2023-12-16T15:19:38.980Z,100801.16
2023-12-16T15:22:05.895Z,100856.41
2023-12-16T15:24:32.452Z,100824.06
2023-12-16T15:26:59.200Z,100777.63
2023-12-16T15:29:25.737Z,100828.50
2023-12-16T15:31:56.228Z,100790.22
2023-12-16T15:34:24.377Z,100841.31
2023-12-16T15:36:56.891Z,100869.38
2023-12-16T15:39:27.065Z,100835.13
2023-12-16T15:41:53.758Z,100841.97
2023-12-16T15:44:20.441Z,100825.41
2023-12-16T15:46:47.031Z,100876.72
2023-12-16T15:49:19.051Z,100853.94
2023-12-16T15:51:45.976Z,100886.22
2023-12-16T15:54:12.610Z,100875.75
2023-12-16T15:56:44.146Z,100905.84
2023-12-16T15:59:11.228Z,100901.69
2023-12-16T16:01:38.642Z,100899.44
2023-12-16T16:04:06.322Z,100915.16
2023-12-16T16:06:34.178Z,100910.72
2023-12-16T16:09:01.682Z,100893.28
2023-12-16T16:11:29.021Z,100904.19
2023-12-16T16:13:55.602Z,100863.84
2023-12-16T16:16:22.705Z,100903.75
2023-12-16T16:18:50.327Z,100892.91
2023-12-16T16:21:17.516Z,100883.88
2023-12-16T16:23:44.555Z,100882.94
2023-12-16T16:26:11.358Z,100891.47
2023-12-16T16:28:37.990Z,100902.78
2023-12-16T16:31:07.479Z,100876.34
2023-12-16T16:33:34.512Z,100884.81
2023-12-16T16:36:02.420Z,100887.16
2023-12-16T16:38:30.147Z,100912.06
2023-12-16T16:40:56.752Z,100863.84
2023-12-16T16:43:23.330Z,100855.63
2023-12-16T16:45:49.952Z,100944.34
2023-12-16T16:48:16.648Z,100912.47
2023-12-16T16:50:49.152Z,100890.59
2023-12-16T16:53:17.451Z,100928.03
2023-12-16T16:55:44.278Z,100944.03
2023-12-16T16:58:12.057Z,100917.09
2023-12-16T17:00:40.198Z,100872.66
2023-12-16T17:03:07.016Z,100933.44
2023-12-16T17:05:33.911Z,100941.63
2023-12-16T17:08:00.882Z,100934.53
2023-12-16T17:10:27.520Z,100944.28
2023-12-16T17:12:54.115Z,100938.75
2023-12-16T17:15:20.791Z,100922.59
2023-12-16T17:17:47.469Z,100942.31
2023-12-16T17:20:14.226Z,100944.81
2023-12-16T17:22:41.284Z,100964.06
2023-12-16T17:25:09.275Z,100969.06
2023-12-16T17:27:35.946Z,100925.25
2023-12-16T17:30:03.015Z,100931.66
2023-12-16T17:32:29.834Z,100971.72
2023-12-16T17:34:57.765Z,100947.94
2023-12-16T17:37:24.497Z,100944.66
2023-12-16T17:39:51.086Z,100931.72
2023-12-16T17:42:18.687Z,100919.31
2023-12-16T17:44:45.229Z,100908.97
2023-12-16T17:47:13.079Z,100871.66
2023-12-16T17:49:39.642Z,100954.50
2023-12-16T17:52:06.196Z,100939.59
2023-12-16T17:54:32.820Z,100938.50
2023-12-16T17:56:59.794Z,100939.38
2023-12-16T17:59:26.534Z,100869.63
2023-12-16T18:01:53.145Z,100979.06
2023-12-16T18:04:19.947Z,100921.84
2023-12-16T18:06:52.471Z,100913.78
2023-12-16T18:09:20.278Z,100933.75
2023-12-16T18:11:47.883Z,100970.75
2023-12-16T18:14:14.942Z,100973.63
2023-12-16T18:16:41.598Z,100968.25
2023-12-16T18:19:08.408Z,100976.97
2023-12-16T18:21:35.182Z,100994.44
2023-12-16T18:24:02.180Z,101001.16
2023-12-16T18:26:29.002Z,100918.91
2023-12-16T18:28:56.655Z,100951.69
2023-12-16T18:31:23.486Z,100996.06
2023-12-16T18:33:50.117Z,100988.03
2023-12-16T18:36:16.794Z,100954.25
2023-12-16T18:38:45.272Z,101019.53
2023-12-16T18:41:12.863Z,101001.97
2023-12-16T18:43:44.299Z,100995.38
2023-12-16T18:46:11.356Z,100997.16
2023-12-16T18:48:38.203Z,100975.72
2023-12-16T18:51:05.021Z,101017.06
2023-12-16T18:53:31.676Z,101050.50
2023-12-16T18:56:01.602Z,101037.13
2023-12-16T18:58:28.342Z,100999.59
2023-12-16T19:00:54.915Z,100972.38
2023-12-16T19:03:21.552Z,101052.59
2023-12-16T19:05:48.224Z,100920.63
2023-12-16T19:08:14.915Z,101026.47
2023-12-16T19:10:41.753Z,101051.06
2023-12-16T19:13:08.739Z,101045.91
2023-12-16T19:15:35.903Z,101059.84
2023-12-16T19:18:02.602Z,101049.66
2023-12-16T19:20:29.241Z,101022.44
2023-12-16T19:22:55.947Z,101076.06
2023-12-16T19:25:22.475Z,101047.94
2023-12-16T19:27:49.043Z,101036.56
2023-12-16T19:30:15.678Z,101044.47
2023-12-16T19:32:42.412Z,101012.81
2023-12-16T19:35:09.178Z,101014.81
2023-12-16T19:37:35.704Z,101073.16
2023-12-16T19:40:03.965Z,101091.38
2023-12-16T19:42:30.620Z,101079.50
2023-12-16T19:44:57.255Z,101045.19
2023-12-16T19:47:25.937Z,101071.94
2023-12-16T19:49:53.851Z,101031.53
2023-12-16T19:52:20.649Z,101078.28
2023-12-16T19:54:47.392Z,101087.69
2023-12-16T19:57:14.983Z,101075.63
2023-12-16T19:59:44.206Z,101072.34
2023-12-16T20:02:11.674Z,101031.31
2023-12-16T20:04:38.945Z,101062.53
2023-12-16T20:07:05.566Z,101075.72
2023-12-16T20:09:32.402Z,101014.00
2023-12-16T20:11:58.995Z,100996.72
2023-12-16T20:14:25.849Z,101030.19
2023-12-16T20:16:52.463Z,101055.56
2023-12-16T20:19:19.205Z,101030.72
2023-12-16T20:21:45.966Z,101078.47
2023-12-16T20:24:12.568Z,101073.69
2023-12-16T20:26:39.197Z,101040.75
2023-12-16T20:29:05.890Z,101091.25
2023-12-16T20:31:33.834Z,101068.41
2023-12-16T20:34:00.911Z,101109.13
2023-12-16T20:36:31.814Z,101063.94
2023-12-16T20:39:17.616Z,101051.56
2023-12-16T20:41:44.270Z,101094.84
2023-12-16T20:44:10.908Z,101090.69
2023-12-16T20:46:37.487Z,101098.44
2023-12-16T20:49:04.315Z,101104.84
2023-12-16T20:51:32.482Z,101093.91
2023-12-16T20:53:59.047Z,101067.00
2023-12-16T20:56:25.651Z,101075.44
2023-12-16T20:58:52.233Z,101048.44
2023-12-16T21:01:18.995Z,101048.00
2023-12-16T21:03:46.142Z,101049.75
2023-12-16T21:06:12.856Z,101120.94
2023-12-16T21:08:39.552Z,101083.00
2023-12-16T21:11:06.670Z,101064.19
2023-12-16T21:13:33.191Z,101122.78
2023-12-16T21:15:59.835Z,101038.53
2023-12-16T21:18:26.920Z,101073.22
2023-12-16T21:20:53.743Z,101101.84
2023-12-16T21:23:20.563Z,101119.97
2023-12-16T21:25:47.280Z,101075.53
2023-12-16T21:28:14.994Z,101100.97
2023-12-16T21:30:42.211Z,101079.75
2023-12-16T21:33:08.967Z,101125.19
2023-12-16T21:35:35.688Z,101108.19
2023-12-16T21:38:03.224Z,101131.59
2023-12-16T21:40:30.391Z,101136.75
2023-12-16T21:42:57.948Z,101131.00
2023-12-16T21:45:24.683Z,101029.66
2023-12-16T21:47:51.611Z,101106.22
2023-12-16T21:50:18.353Z,101101.78
2023-12-16T21:52:44.987Z,101052.75
2023-12-16T21:55:11.569Z,101081.50
2023-12-16T21:57:38.602Z,101077.63
2023-12-16T22:00:06.160Z,101058.81
2023-12-16T22:02:32.891Z,101036.25
2023-12-16T22:04:59.622Z,101092.66
2023-12-16T22:07:26.315Z,101095.09
2023-12-16T22:09:53.108Z,101104.84
2023-12-16T22:12:19.972Z,101084.44
2023-12-16T22:14:47.367Z,101152.09
2023-12-16T22:17:14.071Z,101115.75
2023-12-16T22:19:42.748Z,101130.75
2023-12-16T22:22:09.662Z,101156.03
2023-12-16T22:24:36.357Z,101121.22
2023-12-16T22:27:03.230Z,101132.97
2023-12-16T22:29:29.940Z,101165.91
2023-12-16T22:31:56.498Z,101165.56
2023-12-16T22:34:23.178Z,101124.53
2023-12-16T22:36:49.803Z,101160.41
2023-12-16T22:39:16.445Z,101179.97
2023-12-16T22:41:43.084Z,101153.50
2023-12-16T22:44:09.976Z,101168.53
2023-12-16T22:46:38.347Z,101128.72
2023-12-16T22:49:05.286Z,101106.13
2023-12-16T22:51:32.690Z,101155.31
2023-12-16T22:54:01.081Z,101087.47
2023-12-16T22:56:28.237Z,101104.28
2023-12-16T22:58:54.828Z,101143.88
2023-12-16T23:01:21.585Z,101102.81
2023-12-16T23:03:48.600Z,101149.81
2023-12-16T23:06:15.539Z,101131.19
2023-12-16T23:08:44.388Z,101145.91
2023-12-16T23:11:11.325Z,101102.41
2023-12-16T23:13:38.026Z,101107.16
2023-12-16T23:16:05.583Z,101093.47
2023-12-16T23:18:32.584Z,101115.59
2023-12-16T23:21:00.500Z,101078.38
2023-12-16T23:23:27.288Z,101080.78
2023-12-16T23:25:54.506Z,101163.59
2023-12-16T23:28:21.491Z,101173.06
2023-12-16T23:30:57.259Z,101125.97
2023-12-16T23:33:27.734Z,101068.94
2023-12-16T23:35:54.882Z,101101.72
2023-12-16T23:38:21.905Z,101094.84
2023-12-16T23:40:50.854Z,101045.00
2023-12-16T23:43:17.536Z,101135.50
2023-12-16T23:45:44.150Z,101095.47
2023-12-16T23:48:11.176Z,101070.84
2023-12-16T23:50:37.824Z,101033.06
2023-12-16T23:53:04.395Z,101136.16
2023-12-16T23:55:31.254Z,101129.56
2023-12-16T23:57:57.932Z,101077.72
